Historyczne dane pomiarowe

Dodano dane terminowe – wersja testowa.

Dane z okresu 1951-2019

Wersja bazy: 1.34 [2019-03-16, lista zmian], aktualizacja planowana na 2019-04-15

Dane meteo z obszaru Polski uzyskane na podstawie danych udostępnionych przez Instytut Meteorologii i Gospodarki Wodnej – Państwowy Instytut Badawczy.

 

Wybierz Datę:    

       

TemperaturaWilgotnośćWiatrCiśnienieOpadyŚniegCzas trwania zjawisk
 Stacja t tx tn tng RH VA  wxwx mslp ppp RRR   cm mm wxwxwxwxwxwxwx
2010-02-25 4.1 7.9 0.7 0.5 88.0- 8.0 0.3---- 0.0-- 22---------
2010-02-26 1.3 6.5 -0.5 -2.9 90.3- 8.0 2.3---- 1.5-- 17---------
2010-02-27 2.1 4.9 -0.5 -0.7 93.5- 8.0 1.0---- 0.0-- 15---------
2010-02-28 1.7 5.8 -1.2 -4.2 92.5- 5.3 1.3---- 0.0-- 12---------
2010-03-01 6.2 10.7 3.2 3.2 74.5- 6.3 3.7---- 0.7-- 3---------
2010-03-02 2.5 4.6 1.7 1.2 68.3- 6.7 2.3---- 0.0-- 1---------
2010-03-03 -0.1 2.7 -2.1 -2.9 79.0- 3.3 1.3---- 2.0-- 1---------
2010-03-04 -0.4 2.9 -2.5 -6.7 80.0- 4.0 1.0---- 0.0-- 3---------
2010-03-05 -2.7 0.2 -4.8 -6.8 82.0- 6.7 2.0---- 1.2-- 1---------
2010-03-06 -3.2 -1.0 -4.8 -5.7 82.0- 6.3 1.7---- 0.0-- 1---------
2010-03-07 -5.9 -2.5 -8.4 -8.5 82.8- 5.7 1.0---- 0.0-- 1---------
2010-03-08 -5.5 -0.2 -9.0-11.0 79.8- 2.7 0.3---- 0.0------------
2010-03-09 -5.2 -0.4 -9.6-10.7 70.3- 4.0 0.0---- 0.0------------
2010-03-10 -0.8 3.9 -3.4 -9.2 76.0- 3.0 1.0---- 0.0------------
2010-03-11 -1.7 5.1 -5.9-11.3 70.3- 3.7 2.3---- 0.0------------
2010-03-12 -0.7 3.9 -2.7 -7.8 82.5- 6.0 2.0---- 1.1------------
2010-03-13 -1.2 1.6 -3.2 -5.7 87.3- 6.0 2.3---- 2.0------------
2010-03-14 -0.4 3.2 -1.9 -4.5 93.3- 7.0 1.0---- 14.8-- 1---------
2010-03-15 -3.9 -0.1 -6.8-11.3 86.5- 5.3 2.3---- 0.7-- 23---------
2010-03-16 -1.2 2.8 -3.1 -5.5 86.5- 5.7 1.3---- 0.0-- 23---------
2010-03-17 -0.6 3.3 -4.4 -5.7 88.5- 7.0 2.3---- 0.0-- 10---------
2010-03-18 3.8 5.2 2.5 1.3 86.0- 8.0 1.3---- 0.0-- 2---------
2010-03-19 8.5 16.1 4.2 0.2 66.0- 7.0 2.7---- 0.0------------
2010-03-20 9.7 16.4 4.1 3.9 95.5- 7.0 2.0---- 2.4------------
2010-03-21 12.6 18.0 9.5 9.0 84.3- 7.0 2.0---- 3.4------------
2010-03-22 8.7 17.5 5.4 2.5 76.5- 8.0 3.0---- 0.0------------
2010-03-23 8.1 14.6 1.6 -1.7 70.0- 4.3 1.3---- 0.0------------
2010-03-24 8.1 13.9 3.8 2.8 65.8- 1.0 2.3---- 0.0------------
2010-03-25 9.8 17.7 4.2 1.7 61.0- 2.3 1.7---- 0.0------------
2010-03-26 15.6 20.9 11.9 10.2 62.5- 6.0 1.3---- 0.1------------
197.3 ms

 

Źródłem pochodzenia danych jest Instytut Meteorologii i Gospodarki Wodnej – Państwowy Instytut Badawczy. Dane Instytutu Meteorologii i Gospodarki Wodnej – Państwowego Instytutu Badawczego zostały przetworzone.

Dane źródłowe można odnaleźć na stronie https://dane.imgw.pl